Constanta, Romania
Current Conditions -  °F | °C
As of 5:30 PM on Friday 28 Nov 2014 (Local Time) from LRCK Reporting Station
Drizzle Drizzle  
Wind Chill: 34°   Ceiling: 200
Heat Index: 34°   Visibility: 0.5mi
Dew Point: 34°   Wind: 3mph
Humidity: 100%   Direction: 350°N
Pressure: 30.21"   Gusts: NA
Location:  44.18°N, 28.63°E
Report Text: LRCK 281430Z 35003KT 0800 R36/P2000 -DZ FG SCT001 OVC00201/01 Q1023 R36/290095 BECMG 1500 BR
Loading
Personal Weather Stations






























Interactive Weather Map New forecast layout! Learn more

10-Day Weather Forecast

Advertisements
Track Severe Weather on mobile